Time;durP1;ratioP1;P1;durP2;ratioP2;P2;SDS_P1;SDS_P2;PMS_P1;PMS_P2;Temp;Humidity;BMP_temperature;BMP_pressure;BME280_temperature;BME280_humidity;BME280_pressure;Samples;Min_cycle;Max_cycle;Signal;HPM_P1;HPM_P2
2022/11/19 00:01:45;;;;;;;20.42;15.30;;;;;;;8.15;100.00;100640.56;5245280;28;20021;-71
2022/11/19 00:04:16;;;;;;;20.63;16.08;;;;;;;8.10;100.00;100648.72;5249740;28;20032;-71
2022/11/19 00:06:47;;;;;;;21.13;16.00;;;;;;;8.08;100.00;100642.00;5247647;28;20021;-72
2022/11/19 00:09:19;;;;;;;21.33;16.45;;;;;;;7.95;100.00;100660.34;5248090;28;20105;-71
2022/11/19 00:14:40;;;;;;;22.20;17.13;;;;;;;7.87;100.00;100663.53;5247115;28;20049;-72
2022/11/19 00:17:11;;;;;;;23.38;16.65;;;;;;;7.80;100.00;100659.72;5250180;28;20029;-71
2022/11/19 00:19:42;;;;;;;20.83;16.85;;;;;;;7.76;100.00;100669.56;5248445;28;20116;-71
2022/11/19 00:22:13;;;;;;;20.33;16.10;;;;;;;7.74;100.00;100674.09;5245027;28;20082;-71
2022/11/19 00:24:45;;;;;;;19.52;15.73;;;;;;;7.70;100.00;100671.84;5225525;28;20030;-71
2022/11/19 00:27:16;;;;;;;21.38;16.35;;;;;;;7.76;100.00;100668.75;5247190;28;20063;-71
2022/11/19 00:29:47;;;;;;;20.80;16.60;;;;;;;7.72;100.00;100675.13;5244728;28;20533;-71
2022/11/19 00:32:18;;;;;;;20.63;16.98;;;;;;;7.68;100.00;100674.53;5250310;28;20449;-72
2022/11/19 00:34:50;;;;;;;23.08;16.98;;;;;;;7.66;100.00;100673.00;5244685;28;20112;-71
2022/11/19 00:37:21;;;;;;;22.10;15.77;;;;;;;7.64;100.00;100688.75;5245456;28;20032;-71
2022/11/19 00:39:53;;;;;;;21.77;16.35;;;;;;;7.49;100.00;100669.88;5242451;28;20472;-71
2022/11/19 00:42:24;;;;;;;20.80;16.20;;;;;;;7.53;100.00;100680.91;5243084;28;20120;-71
2022/11/19 00:44:55;;;;;;;20.60;16.23;;;;;;;7.52;100.00;100677.47;5243448;28;20044;-71
2022/11/19 00:47:26;;;;;;;20.45;15.85;;;;;;;7.41;100.00;100667.00;5243201;28;20036;-71
2022/11/19 00:49:58;;;;;;;22.08;16.70;;;;;;;7.48;100.00;100677.81;5246615;28;20029;-71
2022/11/19 00:52:29;;;;;;;20.48;15.90;;;;;;;7.52;100.00;100676.63;5227327;28;20029;-72
2022/11/19 00:55:00;;;;;;;20.08;16.15;;;;;;;7.41;100.00;100682.66;5245700;28;20124;-72
2022/11/19 00:57:31;;;;;;;20.73;16.90;;;;;;;7.41;100.00;100681.81;5250157;28;20021;-71
2022/11/19 01:00:03;;;;;;;21.20;16.08;;;;;;;7.33;100.00;100690.19;5242817;28;20151;-71
2022/11/19 01:02:34;;;;;;;20.30;15.32;;;;;;;7.24;100.00;100693.50;5241819;28;20033;-71
2022/11/19 01:05:06;;;;;;;22.80;15.32;;;;;;;7.08;100.00;100691.16;5243389;28;20024;-71
2022/11/19 01:07:37;;;;;;;22.65;16.52;;;;;;;7.07;100.00;100692.94;5249910;28;20120;-71
2022/11/19 01:10:09;;;;;;;19.83;15.32;;;;;;;7.05;100.00;100694.00;5245406;28;20451;-71
2022/11/19 01:13:33;;;;;;;26.95;16.88;;;;;;;6.99;100.00;100699.66;5234715;28;20428;-71
2022/11/19 01:15:31;;;;;;;21.38;15.77;;;;;;;7.05;100.00;100705.25;5242236;28;20057;-71
2022/11/19 01:18:02;;;;;;;18.95;15.32;;;;;;;7.02;100.00;100702.03;5228566;28;20028;-71
2022/11/19 01:20:34;;;;;;;22.15;16.52;;;;;;;6.96;100.00;100707.66;5248881;28;20498;-71
2022/11/19 01:23:05;;;;;;;20.55;17.00;;;;;;;7.01;100.00;100711.63;5245698;28;20017;-71
2022/11/19 01:25:36;;;;;;;23.55;16.23;;;;;;;6.85;100.00;100699.78;5241622;28;20037;-71
2022/11/19 01:28:08;;;;;;;20.10;16.27;;;;;;;6.92;100.00;100722.69;5244657;28;20036;-71
2022/11/19 01:30:41;;;;;;;21.40;16.48;;;;;;;6.95;100.00;100732.06;5242005;28;20029;-71
2022/11/19 01:33:12;;;;;;;;;;;;;;;7.47;100.00;100723.91;5241870;28;20036;-72
2022/11/19 01:35:53;;;;;;;22.98;17.80;;;;;;;7.12;100.00;100721.25;5247037;28;19921;-71
2022/11/19 01:38:26;;;;;;;22.75;18.25;;;;;;;6.96;100.00;100731.13;5243369;28;20029;-71
2022/11/19 01:40:58;;;;;;;23.27;18.90;;;;;;;6.93;100.00;100736.53;5243508;28;20044;-71
2022/11/19 01:43:40;;;;;;;23.50;18.60;;;;;;;7.05;100.00;100738.28;5243187;28;20060;-71
2022/11/19 01:46:16;;;;;;;21.27;16.67;;;;;;;6.88;100.00;100744.69;5240178;28;20047;-71
2022/11/19 01:49:08;;;;;;;22.08;17.42;;;;;;;6.84;100.00;100743.25;5245299;28;20041;-71
2022/11/19 01:51:59;;;;;;;22.58;17.17;;;;;;;6.98;100.00;100735.28;5248999;28;20527;-71
2022/11/19 01:54:38;;;;;;;22.67;17.55;;;;;;;6.91;100.00;100746.25;5243490;28;20423;-71
2022/11/19 01:57:13;;;;;;;20.67;17.17;;;;;;;6.76;100.00;100746.38;5245126;28;20056;-71
2022/11/19 01:59:48;;;;;;;21.67;18.15;;;;;;;6.72;100.00;100742.34;5241583;28;20086;-72
2022/11/19 02:02:21;;;;;;;20.90;16.92;;;;;;;6.75;100.00;100754.31;5241059;28;20028;-71
2022/11/19 02:04:52;;;;;;;21.35;18.45;;;;;;;6.64;100.00;100751.63;5241699;28;20032;-71
2022/11/19 02:07:28;;;;;;;21.35;17.75;;;;;;;6.62;100.00;100741.31;5225569;28;20021;-71
2022/11/19 02:10:01;;;;;;;19.25;17.17;;;;;;;6.54;100.00;100754.84;5222767;28;20033;-71
2022/11/19 02:12:44;;;;;;;18.42;16.42;;;;;;;6.61;100.00;100750.06;5245090;28;20036;-71
2022/11/19 02:15:28;;;;;;;21.10;17.63;;;;;;;6.78;100.00;100756.69;5248550;28;20082;-71
2022/11/19 02:18:02;;;;;;;21.52;17.70;;;;;;;6.55;100.00;100750.47;5247016;28;20111;-70
2022/11/19 02:20:58;;;;;;;20.80;16.67;;;;;;;6.74;100.00;100757.84;5245596;28;20079;-71
2022/11/19 02:23:37;;;;;;;20.50;17.08;;;;;;;6.62;100.00;100756.09;5226197;28;20116;-71
2022/11/19 02:26:33;;;;;;;21.60;18.08;;;;;;;6.72;100.00;100757.13;5248438;28;20029;-71
2022/11/19 02:29:19;;;;;;;21.38;17.58;;;;;;;6.73;100.00;100759.59;5242747;28;20033;-71
2022/11/19 02:32:23;;;;;;;20.92;16.70;;;;;;;6.58;100.00;100761.50;5245637;28;20028;-71
2022/11/19 02:35:03;;;;;;;18.92;15.55;;;;;;;6.47;100.00;100753.59;5233638;28;20095;-71
2022/11/19 02:37:45;;;;;;;17.10;14.20;;;;;;;6.51;100.00;100760.25;5241716;28;20047;-72
2022/11/19 02:40:23;;;;;;;17.63;14.05;;;;;;;6.34;100.00;100758.84;5241198;28;20040;-72
2022/11/19 02:43:04;;;;;;;15.27;12.90;;;;;;;6.42;100.00;100763.50;5246556;28;20038;-72
2022/11/19 02:45:43;;;;;;;15.77;12.77;;;;;;;6.33;100.00;100762.38;5242284;28;20381;-72
2022/11/19 02:48:30;;;;;;;15.48;13.73;;;;;;;6.38;100.00;100764.66;5239565;28;20036;-72
2022/11/19 02:51:03;;;;;;;13.85;12.35;;;;;;;6.18;100.00;100767.81;5242584;28;20056;-71
2022/11/19 02:53:34;;;;;;;13.57;12.05;;;;;;;6.11;100.00;100754.38;5242325;28;20057;-71
2022/11/19 02:56:48;;;;;;;13.00;11.10;;;;;;;6.47;100.00;100771.81;5243086;28;20509;-71
2022/11/19 03:05:17;;;;;;;13.63;11.00;;;;;;;5.97;100.00;100788.25;5245193;28;20369;-71
2022/11/19 03:07:49;;;;;;;13.18;11.48;;;;;;;5.90;100.00;100785.19;5222395;28;20025;-72
2022/11/19 03:10:25;;;;;;;13.18;11.75;;;;;;;5.90;100.00;100792.16;5247243;28;20025;-71
2022/11/19 03:19:10;;;;;;;11.20;10.10;;;;;;;5.83;100.00;100791.72;5249216;28;20457;-71
2022/11/19 03:21:53;;;;;;;11.93;10.45;;;;;;;5.71;100.00;100793.38;5247551;28;20409;-72
2022/11/19 03:24:36;;;;;;;12.50;10.07;;;;;;;5.77;100.00;100794.75;5249693;28;20104;-71
2022/11/19 03:27:14;;;;;;;12.03;10.73;;;;;;;5.68;100.00;100790.97;5250708;28;20041;-71
2022/11/19 03:29:48;;;;;;;10.95;9.85;;;;;;;5.62;100.00;100801.78;5243874;28;20033;-72
2022/11/19 03:32:29;;;;;;;11.63;10.43;;;;;;;5.75;100.00;100804.41;5246457;28;20024;-72
2022/11/19 03:35:06;;;;;;;12.77;11.13;;;;;;;5.60;100.00;100799.25;5248583;28;20483;-71
2022/11/19 03:37:41;;;;;;;12.63;11.10;;;;;;;5.55;100.00;100810.91;5250517;28;20462;-71
2022/11/19 03:40:15;;;;;;;13.57;11.65;;;;;;;5.70;100.00;100801.28;5242631;28;20025;-71
2022/11/19 03:42:51;;;;;;;13.70;11.60;;;;;;;5.65;100.00;100795.56;5246154;28;20044;-71
2022/11/19 03:45:27;;;;;;;14.57;12.27;;;;;;;5.53;100.00;100800.63;5247888;28;20043;-71
2022/11/19 03:48:03;;;;;;;14.35;12.38;;;;;;;5.57;100.00;100803.84;5247188;28;20040;-72
2022/11/19 03:50:55;;;;;;;13.13;11.63;;;;;;;5.57;100.00;100809.88;5242701;28;20082;-71
2022/11/19 03:53:26;;;;;;;13.85;12.45;;;;;;;5.54;100.00;100810.06;5248743;28;20057;-71
2022/11/19 03:56:04;;;;;;;15.15;13.20;;;;;;;5.63;100.00;100811.22;5242347;28;20072;-71
2022/11/19 03:58:41;;;;;;;15.05;13.10;;;;;;;5.61;100.00;100813.13;5241900;28;20029;-71
2022/11/19 04:01:13;;;;;;;13.68;12.23;;;;;;;5.51;100.00;100812.84;5243488;28;20482;-71
2022/11/19 04:04:34;;;;;;;15.95;13.27;;;;;;;5.47;100.00;100811.38;5245634;28;20022;-71
2022/11/19 04:06:35;;;;;;;15.73;13.57;;;;;;;5.47;100.00;100819.19;5245270;28;20045;-71
2022/11/19 04:09:06;;;;;;;19.75;14.85;;;;;;;5.58;100.00;100821.94;5241785;28;20403;-72
2022/11/19 04:11:38;;;;;;;18.77;14.38;;;;;;;5.58;100.00;100815.91;5245506;28;20454;-72
2022/11/19 04:14:09;;;;;;;15.32;13.50;;;;;;;5.49;100.00;100822.53;5250778;28;20502;-71
2022/11/19 04:16:40;;;;;;;17.40;14.80;;;;;;;5.42;100.00;100823.00;5240271;28;20498;-71
2022/11/19 04:19:11;;;;;;;16.23;12.82;;;;;;;5.44;100.00;100834.97;5244545;28;20056;-72
2022/11/19 04:21:43;;;;;;;20.15;16.40;;;;;;;5.52;100.00;100824.09;5243461;28;20025;-71
2022/11/19 04:24:15;;;;;;;20.50;15.27;;;;;;;5.43;100.00;100841.09;5248193;28;20108;-71
2022/11/19 04:26:46;;;;;;;18.35;15.10;;;;;;;5.36;100.00;100835.44;5242094;28;20056;-71
2022/11/19 04:29:18;;;;;;;19.75;16.45;;;;;;;5.39;100.00;100847.44;5243627;28;20119;-71
2022/11/19 04:31:49;;;;;;;19.23;15.30;;;;;;;5.32;100.00;100844.38;5244450;28;20025;-71
2022/11/19 04:34:20;;;;;;;21.55;17.15;;;;;;;5.23;100.00;100841.53;5245935;28;20602;-71
2022/11/19 04:36:52;;;;;;;21.45;17.63;;;;;;;5.32;100.00;100856.53;5242744;28;20033;-71
2022/11/19 04:39:23;;;;;;;20.58;17.30;;;;;;;5.17;100.00;100860.09;5246922;28;20032;-71
2022/11/19 04:41:54;;;;;;;20.77;17.67;;;;;;;5.15;100.00;100854.97;5249083;28;20158;-71
2022/11/19 04:44:25;;;;;;;20.98;16.77;;;;;;;5.15;100.00;100860.16;5240264;28;20048;-71
2022/11/19 04:46:58;;;;;;;22.08;17.98;;;;;;;4.99;100.00;100836.91;5240322;28;20098;-71
2022/11/19 04:49:30;;;;;;;23.65;18.35;;;;;;;5.10;100.00;100860.44;5248955;28;20029;-71
2022/11/19 04:52:01;;;;;;;21.48;18.20;;;;;;;5.00;100.00;100856.78;5246404;28;20470;-71
2022/11/19 04:54:32;;;;;;;21.13;18.73;;;;;;;4.95;100.00;100848.41;5243061;28;20049;-71
2022/11/19 04:57:04;;;;;;;22.48;18.60;;;;;;;4.86;100.00;100860.19;5243015;28;20382;-71
2022/11/19 04:59:35;;;;;;;21.27;18.80;;;;;;;4.89;100.00;100864.38;5243755;28;20034;-71
2022/11/19 05:02:06;;;;;;;20.92;18.52;;;;;;;4.92;100.00;100874.56;5239193;28;20056;-71
2022/11/19 05:04:38;;;;;;;21.63;17.08;;;;;;;4.97;100.00;100863.91;5240393;28;20036;-71
2022/11/19 05:07:09;;;;;;;21.40;18.00;;;;;;;4.81;100.00;100863.97;5245575;28;20033;-71
2022/11/19 05:09:40;;;;;;;22.52;18.88;;;;;;;4.95;100.00;100868.34;5245735;28;20033;-71
2022/11/19 05:12:11;;;;;;;21.98;18.45;;;;;;;4.94;100.00;100871.88;5244251;28;20509;-71
2022/11/19 05:14:43;;;;;;;23.75;19.73;;;;;;;4.94;100.00;100877.91;5248681;28;20080;-71
2022/11/19 05:17:15;;;;;;;22.23;18.48;;;;;;;4.89;100.00;100887.75;5246884;28;20049;-71
2022/11/19 05:19:46;;;;;;;25.42;19.92;;;;;;;4.88;100.00;100884.28;5241831;28;20430;-71
2022/11/19 05:22:17;;;;;;;24.05;21.08;;;;;;;4.90;100.00;100889.41;5242859;28;20086;-71
2022/11/19 05:24:48;;;;;;;22.83;19.40;;;;;;;4.90;100.00;100892.00;5240967;28;20028;-71
2022/11/19 05:27:20;;;;;;;22.30;19.65;;;;;;;4.86;100.00;100888.75;5243813;28;20057;-71
2022/11/19 05:29:51;;;;;;;22.73;19.45;;;;;;;4.92;100.00;100887.53;5240469;28;20029;-71
2022/11/19 05:32:22;;;;;;;22.60;19.40;;;;;;;5.01;100.00;100889.59;5246960;28;20389;-71
2022/11/19 05:34:53;;;;;;;22.17;19.08;;;;;;;5.06;100.00;100899.69;5241415;28;20151;-71
2022/11/19 05:37:25;;;;;;;22.70;19.17;;;;;;;4.95;100.00;100878.72;5245451;28;20394;-71
2022/11/19 05:39:56;;;;;;;22.10;19.42;;;;;;;4.97;100.00;100897.66;5245452;28;20128;-71
2022/11/19 05:42:27;;;;;;;24.45;19.98;;;;;;;4.96;100.00;100901.16;5242942;28;20077;-71
2022/11/19 05:44:58;;;;;;;23.10;20.45;;;;;;;5.02;100.00;100904.22;5241109;28;20041;-71
2022/11/19 05:47:30;;;;;;;22.58;19.92;;;;;;;4.92;100.00;100910.91;5241095;28;20025;-71
2022/11/19 05:50:02;;;;;;;22.63;19.42;;;;;;;4.82;100.00;100900.25;5244989;28;20041;-71
2022/11/19 05:52:33;;;;;;;24.88;20.65;;;;;;;4.85;100.00;100907.03;5249557;28;20040;-71
2022/11/19 05:55:05;;;;;;;22.88;20.38;;;;;;;4.85;100.00;100909.63;5243376;28;20025;-72
2022/11/19 05:57:36;;;;;;;21.85;19.40;;;;;;;4.84;100.00;100919.13;5242603;28;20501;-71
2022/11/19 06:00:09;;;;;;;23.08;20.67;;;;;;;4.90;100.00;100919.72;5242962;28;20497;-71
2022/11/19 06:02:40;;;;;;;23.88;20.50;;;;;;;4.80;100.00;100906.44;5245003;28;20091;-71
2022/11/19 06:05:11;;;;;;;23.45;20.92;;;;;;;4.90;100.00;100922.31;5242368;28;20281;-71
2022/11/19 06:07:43;;;;;;;24.55;21.05;;;;;;;4.89;100.00;100931.88;5239049;28;20025;-71
2022/11/19 06:10:14;;;;;;;24.27;21.27;;;;;;;4.89;100.00;100931.88;5238274;28;20434;-71
2022/11/19 06:12:45;;;;;;;24.70;21.02;;;;;;;4.88;100.00;100912.84;5244159;28;20111;-71
2022/11/19 06:15:16;;;;;;;23.58;20.98;;;;;;;4.87;100.00;100924.16;5246903;28;20038;-71
2022/11/19 06:17:48;;;;;;;24.42;21.45;;;;;;;4.78;100.00;100934.28;5241568;28;20124;-72
2022/11/19 06:20:19;;;;;;;23.30;20.60;;;;;;;4.74;100.00;100937.97;5242364;28;20123;-71
2022/11/19 06:22:51;;;;;;;24.80;21.77;;;;;;;4.74;100.00;100948.34;5242308;28;20017;-71
2022/11/19 06:25:22;;;;;;;26.35;22.75;;;;;;;4.62;100.00;100947.28;5243708;28;20025;-71
2022/11/19 06:27:54;;;;;;;25.50;22.17;;;;;;;4.62;100.00;100949.88;5246839;28;20421;-72
2022/11/19 06:30:25;;;;;;;26.38;23.42;;;;;;;4.67;100.00;100957.41;5244417;28;20687;-71
2022/11/19 06:32:56;;;;;;;24.33;21.73;;;;;;;4.67;100.00;100965.22;5244441;28;20032;-72
2022/11/19 06:35:27;;;;;;;26.65;22.70;;;;;;;4.65;100.00;100967.88;5247266;28;20108;-71
2022/11/19 06:37:59;;;;;;;26.35;23.40;;;;;;;4.69;100.00;100968.53;5245472;28;20095;-72
2022/11/19 06:40:30;;;;;;;27.10;23.17;;;;;;;4.75;100.00;100978.56;5243931;28;20056;-71
2022/11/19 06:43:01;;;;;;;26.75;23.45;;;;;;;4.64;100.00;100976.59;5246915;28;20044;-71
2022/11/19 06:45:32;;;;;;;27.73;24.48;;;;;;;4.55;100.00;100965.00;5245695;28;20065;-71
2022/11/19 06:48:04;;;;;;;29.10;25.88;;;;;;;4.54;100.00;100965.06;5245280;28;20041;-71
2022/11/19 06:50:35;;;;;;;29.95;25.15;;;;;;;4.51;100.00;100962.63;5249074;28;20024;-71
2022/11/19 06:53:06;;;;;;;27.60;23.30;;;;;;;4.49;100.00;100983.50;5250106;28;20021;-72
2022/11/19 06:55:38;;;;;;;27.10;23.63;;;;;;;4.38;100.00;100981.50;5250845;28;20382;-71
2022/11/19 06:58:09;;;;;;;28.02;23.38;;;;;;;4.46;100.00;100982.81;5246040;28;20033;-71
2022/11/19 07:00:41;;;;;;;30.13;25.88;;;;;;;4.52;100.00;100979.91;5241554;28;20031;-71
2022/11/19 07:03:12;;;;;;;30.50;26.13;;;;;;;4.54;100.00;100984.06;5235177;28;20025;-71
2022/11/19 07:05:43;;;;;;;30.58;25.40;;;;;;;4.54;100.00;100991.84;5242956;28;20087;-72
2022/11/19 07:08:15;;;;;;;31.88;26.65;;;;;;;4.41;100.00;100997.81;5248387;28;20025;-72
2022/11/19 07:10:47;;;;;;;30.63;25.80;;;;;;;4.37;100.00;100991.97;5244089;28;20033;-71
2022/11/19 07:13:18;;;;;;;30.70;26.15;;;;;;;4.38;100.00;101001.41;5244199;28;20375;-71
2022/11/19 07:15:49;;;;;;;30.38;26.00;;;;;;;4.26;100.00;101000.34;5250287;28;20024;-72
2022/11/19 07:18:20;;;;;;;31.80;25.77;;;;;;;4.24;100.00;101012.56;5251438;28;20024;-71
2022/11/19 07:20:52;;;;;;;31.70;26.52;;;;;;;4.24;100.00;101007.38;5243246;28;20112;-72
2022/11/19 07:23:23;;;;;;;30.45;24.00;;;;;;;4.23;100.00;101018.69;5246246;28;20033;-71
2022/11/19 07:26:00;;;;;;;30.80;24.73;;;;;;;4.33;100.00;101022.44;5248420;28;20027;-71
2022/11/19 07:28:33;;;;;;;31.40;25.88;;;;;;;4.30;100.00;101019.19;5242270;28;20029;-71
2022/11/19 07:31:06;;;;;;;33.58;26.27;;;;;;;4.26;100.00;101015.91;5247075;28;20029;-71
2022/11/19 07:33:38;;;;;;;34.70;26.90;;;;;;;4.23;100.00;101025.63;5250087;28;20027;-71
2022/11/19 07:36:12;;;;;;;35.50;27.23;;;;;;;4.35;100.00;101033.53;5250217;28;20045;-71
2022/11/19 07:38:43;;;;;;;35.70;27.38;;;;;;;4.14;100.00;101035.59;5244961;28;20128;-71
2022/11/19 07:44:05;;;;;;;33.90;26.98;;;;;;;4.17;100.00;101044.09;5248194;28;20053;-72
2022/11/19 07:46:36;;;;;;;32.65;26.13;;;;;;;4.07;100.00;101041.19;5245167;28;20025;-72
2022/11/19 07:49:07;;;;;;;30.77;25.35;;;;;;;3.98;100.00;101028.72;5247665;28;20413;-71
2022/11/19 07:51:39;;;;;;;35.00;27.00;;;;;;;4.17;100.00;101044.09;5244774;28;20122;-72
2022/11/19 07:54:11;;;;;;;34.17;26.45;;;;;;;4.18;100.00;101049.22;5244375;28;20065;-71
2022/11/19 07:56:42;;;;;;;33.35;26.88;;;;;;;4.14;100.00;101045.97;5243810;28;20048;-71
2022/11/19 07:59:14;;;;;;;31.38;25.17;;;;;;;4.14;100.00;101048.56;5247315;28;20029;-71
2022/11/19 08:01:45;;;;;;;30.92;25.73;;;;;;;4.16;100.00;101051.03;5243689;28;20096;-72
2022/11/19 08:04:16;;;;;;;33.00;26.15;;;;;;;4.20;100.00;101051.72;5247527;28;20025;-71
2022/11/19 08:06:48;;;;;;;32.17;25.92;;;;;;;4.17;100.00;101051.88;5246772;28;20036;-71
2022/11/19 08:09:19;;;;;;;33.38;27.38;;;;;;;4.15;100.00;101059.75;5248125;28;20033;-71
2022/11/19 08:11:50;;;;;;;32.10;25.33;;;;;;;4.19;100.00;101061.25;5248907;28;20367;-71
2022/11/19 08:14:22;;;;;;;32.53;26.23;;;;;;;4.17;100.00;101067.44;5244776;28;20033;-72
2022/11/19 08:19:43;;;;;;;34.20;26.17;;;;;;;4.23;100.00;101059.34;5247996;28;20410;-71
2022/11/19 08:22:14;;;;;;;35.20;27.20;;;;;;;4.17;100.00;101062.25;5243707;28;20030;-71
2022/11/19 08:24:45;;;;;;;33.58;26.27;;;;;;;4.15;100.00;101068.38;5246392;28;20059;-71
2022/11/19 08:27:17;;;;;;;32.20;26.13;;;;;;;4.21;100.00;101072.41;5247743;28;20183;-71
2022/11/19 08:29:48;;;;;;;31.48;25.92;;;;;;;4.18;100.00;101076.91;5242890;28;20029;-71
2022/11/19 08:32:20;;;;;;;36.03;26.63;;;;;;;4.08;100.00;101063.59;5244245;28;20029;-71
2022/11/19 08:34:51;;;;;;;32.50;25.35;;;;;;;4.15;100.00;101065.78;5244638;28;20052;-71
2022/11/19 08:37:22;;;;;;;32.03;25.67;;;;;;;4.12;100.00;101076.31;5244507;28;20518;-71
2022/11/19 08:39:53;;;;;;;32.90;26.05;;;;;;;4.11;100.00;101076.41;5241496;28;20040;-71
2022/11/19 08:44:58;;;;;;;31.70;25.58;;;;;;;4.19;100.00;101081.16;5222039;28;20449;-68
2022/11/19 08:47:30;;;;;;;32.45;25.20;;;;;;;4.22;100.00;101075.81;5220800;28;20018;-69
2022/11/19 08:50:01;;;;;;;32.95;25.58;;;;;;;4.27;100.00;101082.41;5232481;28;20165;-69
2022/11/19 08:52:32;;;;;;;32.47;25.88;;;;;;;4.31;100.00;101083.09;5232265;28;20029;-69
2022/11/19 08:55:04;;;;;;;30.05;25.15;;;;;;;4.33;100.00;101096.81;5228053;28;20516;-68
2022/11/19 08:57:35;;;;;;;32.10;26.75;;;;;;;4.34;100.00;101090.72;5232378;28;20056;-69
2022/11/19 09:00:07;;;;;;;32.53;25.58;;;;;;;4.35;100.00;101092.38;5230133;28;20026;-68
2022/11/19 09:02:39;;;;;;;31.05;25.20;;;;;;;4.32;100.00;101101.19;5229520;28;20099;-69
2022/11/19 09:05:10;;;;;;;34.25;25.52;;;;;;;4.23;100.00;101096.47;5225190;28;20013;-69
2022/11/19 09:07:41;;;;;;;30.45;24.63;;;;;;;4.28;100.00;101106.59;5234145;28;20025;-69
2022/11/19 09:10:13;;;;;;;31.38;25.95;;;;;;;4.31;100.00;101106.44;5230159;28;20045;-69
2022/11/19 09:12:44;;;;;;;33.72;25.80;;;;;;;4.22;100.00;101099.16;5228042;28;20021;-69
2022/11/19 09:15:15;;;;;;;32.30;25.45;;;;;;;4.26;100.00;101108.44;5230381;28;20042;-69
2022/11/19 09:17:47;;;;;;;32.05;24.02;;;;;;;4.23;100.00;101103.41;5232647;28;20482;-69
2022/11/19 09:20:18;;;;;;;31.20;25.08;;;;;;;4.27;100.00;101105.75;5232613;28;20024;-69
2022/11/19 09:22:49;;;;;;;32.83;25.20;;;;;;;4.23;100.00;101108.59;5231029;28;20662;-69
2022/11/19 09:25:21;;;;;;;31.73;24.60;;;;;;;4.28;100.00;101117.81;5226674;28;20120;-69
2022/11/19 09:27:52;;;;;;;29.92;23.63;;;;;;;4.25;100.00;101109.38;5229347;28;20030;-69
2022/11/19 09:30:24;;;;;;;28.65;23.92;;;;;;;4.31;100.00;101119.41;5228492;28;20033;-69
2022/11/19 09:32:58;;;;;;;40.08;26.83;;;;;;;4.39;100.00;101123.28;5225497;28;20095;-69
2022/11/19 09:35:29;;;;;;;29.77;23.17;;;;;;;4.31;100.00;101127.19;5229379;28;20482;-69
2022/11/19 09:38:00;;;;;;;29.38;23.23;;;;;;;4.31;100.00;101128.00;5225217;28;20036;-69
2022/11/19 09:40:31;;;;;;;30.77;24.15;;;;;;;4.31;100.00;101133.19;5227083;28;20079;-69
2022/11/19 09:43:12;;;;;;;28.83;22.92;;;;;;;4.47;100.00;101133.22;5237618;28;20037;-69
2022/11/19 09:45:53;;;;;;;29.95;23.90;;;;;;;4.37;100.00;101137.22;5251345;28;20879;-69
2022/11/19 09:48:37;;;;;;;30.83;23.90;;;;;;;4.43;100.00;101154.22;5250951;28;20025;-69
2022/11/19 09:51:17;;;;;;;31.92;23.38;;;;;;;4.43;100.00;101154.22;5252113;28;20079;-69
2022/11/19 09:53:55;;;;;;;31.13;24.38;;;;;;;4.39;100.00;101156.13;5249093;28;20017;-69
2022/11/19 09:56:32;;;;;;;32.42;23.90;;;;;;;4.28;100.00;101158.47;5248264;28;20437;-69
2022/11/19 09:59:24;;;;;;;28.80;23.85;;;;;;;4.37;100.00;101152.78;5250348;28;20051;-69
2022/11/19 10:01:56;;;;;;;30.80;23.30;;;;;;;4.22;100.00;101158.81;5249709;28;20037;-69
2022/11/19 10:04:30;;;;;;;33.85;24.70;;;;;;;4.21;100.00;101154.53;5249898;28;20032;-69
2022/11/19 10:07:17;;;;;;;33.42;24.60;;;;;;;4.28;100.00;101154.13;5248042;28;20033;-69
2022/11/19 10:10:11;;;;;;;32.08;23.58;;;;;;;4.26;100.00;101161.16;5248844;28;20017;-69
2022/11/19 10:13:20;;;;;;;32.20;23.20;;;;;;;4.48;100.00;101160.84;5250128;28;20032;-69
2022/11/19 10:16:09;;;;;;;31.48;23.42;;;;;;;4.30;100.00;101156.63;5252110;28;20032;-69
2022/11/19 10:19:01;;;;;;;29.95;22.52;;;;;;;4.26;100.00;101166.34;5249469;28;20115;-69
2022/11/19 10:22:07;;;;;;;34.25;23.35;;;;;;;4.26;100.00;101173.28;5248719;28;20440;-69
2022/11/19 10:25:12;;;;;;;33.20;24.25;;;;;;;4.19;100.00;101171.94;5251181;28;20037;-69
2022/11/19 10:27:49;;;;;;;33.20;23.15;;;;;;;4.10;100.00;101168.06;5251723;28;20029;-69
2022/11/19 10:30:27;;;;;;;30.33;23.48;;;;;;;4.15;100.00;101171.25;5249290;28;20029;-69
2022/11/19 10:33:06;;;;;;;28.02;22.42;;;;;;;4.18;100.00;101173.69;5250120;28;20051;-69
2022/11/19 10:35:52;;;;;;;32.42;23.85;;;;;;;4.29;100.00;101180.91;5249843;28;20416;-69
2022/11/19 10:38:32;;;;;;;29.63;23.20;;;;;;;4.26;100.00;101181.91;5251100;28;20370;-69
2022/11/19 10:41:12;;;;;;;36.17;25.00;;;;;;;4.19;100.00;101177.13;5248533;28;20033;-69
2022/11/19 10:43:49;;;;;;;26.38;21.48;;;;;;;4.13;100.00;101181.72;5248358;28;20092;-69
2022/11/19 10:46:24;;;;;;;29.00;23.13;;;;;;;4.10;100.00;101176.69;5250629;28;20043;-69
2022/11/19 10:49:00;;;;;;;25.58;21.13;;;;;;;4.19;100.00;101184.91;5245298;28;20056;-69
2022/11/19 10:51:38;;;;;;;29.35;22.75;;;;;;;4.29;100.00;101176.56;5247136;28;20533;-69
2022/11/19 10:54:22;;;;;;;28.67;21.45;;;;;;;4.30;100.00;101179.97;5262127;28;20060;-69
2022/11/19 10:56:56;;;;;;;28.42;22.25;;;;;;;4.14;100.00;101180.78;5246915;28;20167;-69
2022/11/19 10:59:29;;;;;;;;;;;;;;;4.66;100.00;101184.97;5239294;28;20033;-69
2022/11/19 11:02:15;;;;;;;28.08;21.27;;;;;;;4.23;100.00;101181.22;5241878;28;19935;-69
2022/11/19 11:05:14;;;;;;;32.80;22.85;;;;;;;4.40;100.00;101173.38;5251322;28;20021;-69
2022/11/19 11:07:51;;;;;;;26.75;21.40;;;;;;;4.18;100.00;101175.44;5253529;28;20078;-69
2022/11/19 11:10:33;;;;;;;28.58;20.75;;;;;;;4.26;100.00;101175.88;5247476;28;20031;-69
2022/11/19 11:16:10;;;;;;;27.90;20.30;;;;;;;4.23;100.00;101178.63;5245224;28;20119;-69
2022/11/19 11:18:42;;;;;;;29.23;22.00;;;;;;;4.21;100.00;101180.47;5244766;28;20033;-69
2022/11/19 11:21:33;;;;;;;25.65;19.48;;;;;;;4.37;100.00;101182.16;5236311;28;20024;-69
2022/11/19 11:24:05;;;;;;;27.08;21.02;;;;;;;4.23;100.00;101182.06;5236416;28;20126;-69
2022/11/19 11:26:37;;;;;;;25.10;21.00;;;;;;;4.34;100.00;101178.91;5235305;28;20376;-69
2022/11/19 11:29:11;;;;;;;27.23;20.45;;;;;;;4.36;100.00;101179.66;5242701;28;20088;-69
2022/11/19 11:31:44;;;;;;;25.05;19.48;;;;;;;4.32;100.00;101173.81;5258544;28;20033;-70
2022/11/19 11:34:24;;;;;;;;;;;;;;;4.76;100.00;101175.72;5242401;28;20039;-69
2022/11/19 11:36:59;;;;;;;26.48;18.85;;;;;;;4.36;100.00;101167.53;5245846;28;20259;-69
2022/11/19 11:39:37;;;;;;;28.27;20.20;;;;;;;4.32;100.00;101166.03;5238435;28;20180;-69
2022/11/19 11:42:11;;;;;;;22.75;18.75;;;;;;;4.26;100.00;101160.31;5250550;28;20029;-69
2022/11/19 11:44:52;;;;;;;22.33;17.00;;;;;;;4.42;100.00;101165.50;5255458;28;20045;-69
2022/11/19 11:47:38;;;;;;;23.58;18.80;;;;;;;4.48;100.00;101163.44;5257147;28;20037;-69
2022/11/19 11:50:26;;;;;;;23.38;18.65;;;;;;;4.34;100.00;101161.56;5254061;28;20081;-69
2022/11/19 11:52:57;;;;;;;21.42;17.75;;;;;;;4.32;100.00;101162.59;5254499;28;20112;-69
2022/11/19 11:55:31;;;;;;;21.52;18.05;;;;;;;4.56;100.00;101165.59;5254452;28;20132;-69
2022/11/19 11:58:22;;;;;;;20.70;17.20;;;;;;;4.47;100.00;101166.97;5250783;28;20114;-69
2022/11/19 12:01:08;;;;;;;18.63;15.88;;;;;;;4.43;100.00;101168.00;5253385;28;20124;-69
2022/11/19 12:03:57;;;;;;;18.33;15.13;;;;;;;4.53;100.00;101164.00;5253675;28;20013;-69
2022/11/19 12:06:36;;;;;;;20.88;16.58;;;;;;;4.38;100.00;101162.25;5252201;28;20045;-69
2022/11/19 12:09:34;;;;;;;17.80;15.60;;;;;;;4.56;100.00;101168.22;5252648;28;20032;-69
2022/11/19 12:12:44;;;;;;;20.95;16.35;;;;;;;4.69;100.00;101173.56;5217519;28;20560;-69